createdAt,value
2022-12-11T00:00:08.206Z,98053.75
2022-12-11T00:03:15.599Z,98070.16
2022-12-11T00:06:20.966Z,98063.50
2022-12-11T00:09:23.615Z,98047.75
2022-12-11T00:12:25.912Z,98036.84
2022-12-11T00:15:29.472Z,98055.53
2022-12-11T00:18:31.748Z,98043.59
2022-12-11T00:21:34.407Z,98025.16
2022-12-11T00:24:36.677Z,98023.44
2022-12-11T00:27:39.259Z,98040.09
2022-12-11T00:30:44.734Z,98020.50
2022-12-11T00:33:49.371Z,98031.13
2022-12-11T00:36:51.686Z,98026.81
2022-12-11T00:39:54.023Z,98026.19
2022-12-11T00:42:56.320Z,98032.53
2022-12-11T00:45:58.993Z,98017.56
2022-12-11T00:49:01.263Z,98021.25
2022-12-11T00:52:03.593Z,98029.69
2022-12-11T00:55:06.222Z,98026.34
2022-12-11T00:58:09.337Z,98038.13
2022-12-11T01:01:18.774Z,98042.00
2022-12-11T01:04:21.029Z,98036.41
2022-12-11T01:07:23.400Z,98018.03
2022-12-11T01:10:26.871Z,98027.13
2022-12-11T01:13:29.393Z,98052.81
2022-12-11T01:16:31.801Z,98046.19
2022-12-11T01:19:34.132Z,98042.50
2022-12-11T01:22:36.406Z,98054.72
2022-12-11T01:25:39.316Z,98043.22
2022-12-11T01:28:42.587Z,98052.91
2022-12-11T01:31:44.882Z,98037.88
2022-12-11T01:34:47.103Z,98051.63
2022-12-11T01:37:49.807Z,98060.19
2022-12-11T01:40:52.523Z,98059.78
2022-12-11T01:44:08.517Z,98066.59
2022-12-11T01:47:11.460Z,98061.00
2022-12-11T01:50:13.983Z,98053.94
2022-12-11T01:53:29.440Z,98072.72
2022-12-11T01:56:33.117Z,98082.00
2022-12-11T01:59:38.223Z,98070.03
2022-12-11T02:02:40.619Z,98066.25
2022-12-11T02:05:42.923Z,98069.88
2022-12-11T02:08:45.356Z,98069.16
2022-12-11T02:11:59.947Z,98082.97
2022-12-11T02:15:15.327Z,98070.16
2022-12-11T02:18:26.172Z,98081.38
2022-12-11T02:21:37.598Z,98073.88
2022-12-11T02:24:48.976Z,98083.63
2022-12-11T02:27:56.744Z,98068.34
2022-12-11T02:31:07.530Z,98075.28
2022-12-11T02:34:13.907Z,98073.53
2022-12-11T02:37:19.597Z,98061.78
2022-12-11T02:40:25.658Z,98070.31
2022-12-11T02:43:29.124Z,98057.44
2022-12-11T02:46:33.300Z,98060.56
2022-12-11T02:49:35.811Z,98075.44
2022-12-11T02:52:39.436Z,98058.81
2022-12-11T02:55:42.745Z,98068.75
2022-12-11T02:58:55.319Z,98068.75
2022-12-11T03:02:01.078Z,98069.03
2022-12-11T03:05:04.427Z,98051.69
2022-12-11T03:08:06.841Z,98053.59
2022-12-11T03:11:13.089Z,98057.56
2022-12-11T03:14:15.502Z,98050.03
2022-12-11T03:17:22.519Z,98046.16
2022-12-11T03:20:27.688Z,98059.88
2022-12-11T03:24:10.460Z,98054.97
2022-12-11T03:27:19.894Z,98041.03
2022-12-11T03:30:24.040Z,98041.84
2022-12-11T03:33:31.512Z,98050.50
2022-12-11T03:36:36.564Z,98046.44
2022-12-11T03:39:42.569Z,98037.19
2022-12-11T03:42:47.832Z,98053.81
2022-12-11T03:45:51.955Z,98047.59
2022-12-11T03:48:55.189Z,98042.72
2022-12-11T03:51:58.485Z,98057.72
2022-12-11T03:55:02.020Z,98052.38
2022-12-11T03:58:05.240Z,98061.78
2022-12-11T04:01:11.949Z,98043.41
2022-12-11T04:04:14.595Z,98046.25
2022-12-11T04:07:17.122Z,98040.59
2022-12-11T04:10:19.434Z,98058.38
2022-12-11T04:13:21.700Z,98058.25
2022-12-11T04:16:24.116Z,98067.72
2022-12-11T04:19:45.526Z,98053.53
2022-12-11T04:23:06.443Z,98079.81
2022-12-11T04:26:15.095Z,98064.75
2022-12-11T04:29:17.437Z,98080.97
2022-12-11T04:32:19.725Z,98094.25
2022-12-11T04:35:22.335Z,98091.44
2022-12-11T04:38:24.811Z,98083.44
2022-12-11T04:41:27.168Z,98101.59
2022-12-11T04:44:29.469Z,98092.78
2022-12-11T04:47:32.125Z,98116.81
2022-12-11T04:50:34.783Z,98125.50
2022-12-11T04:53:38.101Z,98131.00
2022-12-11T04:56:40.735Z,98126.97
2022-12-11T04:59:42.995Z,98124.69
2022-12-11T05:02:45.364Z,98127.06
2022-12-11T05:05:52.171Z,98136.16
2022-12-11T05:08:54.429Z,98143.47
2022-12-11T05:11:56.743Z,98135.78
2022-12-11T05:14:59.046Z,98146.53
2022-12-11T05:18:01.528Z,98143.00
2022-12-11T05:21:07.110Z,98138.63
2022-12-11T05:24:09.443Z,98154.75
2022-12-11T05:27:12.287Z,98144.28
2022-12-11T05:30:14.509Z,98149.09
2022-12-11T05:33:16.718Z,98164.81
2022-12-11T05:36:30.520Z,98152.22
2022-12-11T05:39:32.829Z,98130.41
2022-12-11T05:42:35.232Z,98138.81
2022-12-11T05:45:37.516Z,98139.47
2022-12-11T05:48:40.562Z,98146.44
2022-12-11T05:51:43.883Z,98129.31
2022-12-11T05:54:49.414Z,98151.31
2022-12-11T05:57:51.779Z,98142.00
2022-12-11T06:00:54.107Z,98141.66
2022-12-11T06:03:57.235Z,98154.75
2022-12-11T06:06:59.471Z,98168.94
2022-12-11T06:10:01.880Z,98168.34
2022-12-11T06:13:04.458Z,98169.69
2022-12-11T06:16:07.737Z,98192.94
2022-12-11T06:19:15.192Z,98204.66
2022-12-11T06:22:17.423Z,98200.97
2022-12-11T06:25:19.752Z,98205.25
2022-12-11T06:28:21.963Z,98206.28
2022-12-11T06:31:24.381Z,98219.78
2022-12-11T06:34:26.683Z,98212.78
2022-12-11T06:37:28.881Z,98227.59
2022-12-11T06:40:31.369Z,98217.38
2022-12-11T06:43:35.371Z,98214.63
2022-12-11T06:46:37.661Z,98225.78
2022-12-11T06:49:39.963Z,98236.84
2022-12-11T06:52:42.237Z,98247.50
2022-12-11T06:55:45.318Z,98259.44
2022-12-11T06:58:47.755Z,98269.19
2022-12-11T07:01:50.067Z,98267.34
2022-12-11T07:04:55.302Z,98264.13
2022-12-11T07:07:58.185Z,98268.94
2022-12-11T07:11:08.719Z,98261.25
2022-12-11T07:14:11.207Z,98268.13
2022-12-11T07:17:13.485Z,98275.94
2022-12-11T07:20:15.889Z,98271.56
2022-12-11T07:23:18.504Z,98272.03
2022-12-11T07:26:22.467Z,98295.41
2022-12-11T07:29:24.843Z,98289.00
2022-12-11T07:32:27.309Z,98291.41
2022-12-11T07:35:29.741Z,98302.88
2022-12-11T07:38:32.286Z,98301.50
2022-12-11T07:41:34.753Z,98306.53
2022-12-11T07:44:37.048Z,98310.75
2022-12-11T07:47:39.300Z,98318.00
2022-12-11T07:50:41.562Z,98324.06
2022-12-11T07:53:45.427Z,98338.28
2022-12-11T07:56:52.928Z,98344.16
2022-12-11T07:59:56.504Z,98350.09
2022-12-11T08:02:58.996Z,98361.69
2022-12-11T08:06:01.243Z,98372.56
2022-12-11T08:09:06.291Z,98357.69
2022-12-11T08:12:08.555Z,98371.63
2022-12-11T08:15:11.535Z,98366.03
2022-12-11T08:18:14.416Z,98381.28
2022-12-11T08:21:22.594Z,98387.09
2022-12-11T08:24:25.009Z,98389.88
2022-12-11T08:27:27.844Z,98382.44
2022-12-11T08:30:31.932Z,98382.66
2022-12-11T08:33:34.943Z,98391.16
2022-12-11T08:36:37.559Z,98396.88
2022-12-11T08:39:39.938Z,98412.13
2022-12-11T08:42:42.332Z,98432.44
2022-12-11T08:45:44.831Z,98442.19
2022-12-11T08:48:47.259Z,98433.34
2022-12-11T08:51:50.229Z,98438.16
2022-12-11T08:54:52.615Z,98439.75
2022-12-11T08:57:55.417Z,98446.53
2022-12-11T09:00:57.875Z,98464.31
2022-12-11T09:04:00.221Z,98473.94
2022-12-11T09:07:02.547Z,98452.72
2022-12-11T09:10:06.141Z,98448.03
2022-12-11T09:13:08.567Z,98441.84
2022-12-11T09:16:16.449Z,98459.16
2022-12-11T09:19:19.708Z,98457.19
2022-12-11T09:22:22.107Z,98445.84
2022-12-11T09:25:24.499Z,98440.81
2022-12-11T09:28:26.810Z,98446.28
2022-12-11T09:31:31.699Z,98468.66
2022-12-11T09:34:34.102Z,98457.19
2022-12-11T09:37:36.786Z,98422.66
2022-12-11T09:40:43.396Z,98456.63
2022-12-11T09:43:55.124Z,98461.19
2022-12-11T09:46:58.265Z,98454.09
2022-12-11T09:50:11.897Z,98443.34
2022-12-11T09:53:35.200Z,98444.59
2022-12-11T09:56:51.233Z,98430.25
2022-12-11T10:00:05.677Z,98445.28
2022-12-11T10:03:23.654Z,98437.22
2022-12-11T10:06:34.750Z,98419.81
2022-12-11T10:09:50.517Z,98430.00
2022-12-11T10:13:06.697Z,98443.44
2022-12-11T10:16:12.137Z,98433.47
2022-12-11T10:19:28.501Z,98433.56
2022-12-11T10:22:33.212Z,98460.88
2022-12-11T10:25:46.580Z,98461.09
2022-12-11T10:28:49.183Z,98460.84
2022-12-11T10:31:58.392Z,98463.75
2022-12-11T10:35:03.291Z,98460.09
2022-12-11T10:38:29.676Z,98459.72
2022-12-11T10:41:42.716Z,98470.41
2022-12-11T10:45:02.329Z,98463.28
2022-12-11T10:48:11.664Z,98487.50
2022-12-11T10:51:14.649Z,98500.22
2022-12-11T10:54:38.148Z,98500.31
2022-12-11T10:57:40.537Z,98506.41
2022-12-11T11:00:43.016Z,98488.53
2022-12-11T11:03:57.109Z,98495.66
2022-12-11T11:07:04.199Z,98480.84
2022-12-11T11:10:12.469Z,98503.47
2022-12-11T11:13:14.746Z,98489.22
2022-12-11T11:16:20.035Z,98471.34
2022-12-11T11:19:31.609Z,98482.09
2022-12-11T11:22:46.159Z,98464.75
2022-12-11T11:25:54.830Z,98464.81
2022-12-11T11:28:57.549Z,98489.31
2022-12-11T11:32:16.078Z,98493.13
2022-12-11T11:35:21.314Z,98502.75
2022-12-11T11:38:27.199Z,98510.13
2022-12-11T11:41:39.014Z,98522.16
2022-12-11T11:45:06.082Z,98516.78
2022-12-11T11:48:22.806Z,98514.22
2022-12-11T11:51:29.899Z,98512.16
2022-12-11T11:54:39.624Z,98538.53
2022-12-11T11:57:53.260Z,98538.78
2022-12-11T12:00:55.571Z,98533.22
2022-12-11T12:03:58.092Z,98540.56
2022-12-11T12:07:26.728Z,98544.06
2022-12-11T12:10:44.672Z,98544.16
2022-12-11T12:13:59.931Z,98553.91
2022-12-11T12:17:17.927Z,98558.06
2022-12-11T12:20:35.923Z,98557.47
2022-12-11T12:24:04.586Z,98544.56
2022-12-11T12:27:50.960Z,98559.56
2022-12-11T12:30:49.604Z,98554.72
2022-12-11T12:34:42.770Z,98552.34
2022-12-11T12:37:48.137Z,98548.19
2022-12-11T12:41:25.195Z,98560.56
2022-12-11T12:44:32.699Z,98550.81
2022-12-11T12:47:36.324Z,98551.16
2022-12-11T12:50:42.890Z,98580.88
2022-12-11T12:53:56.323Z,98570.41
2022-12-11T12:56:59.445Z,98581.47
2022-12-11T13:00:02.349Z,98586.88
2022-12-11T13:03:15.208Z,98598.13
2022-12-11T13:06:38.136Z,98621.00
2022-12-11T13:09:40.519Z,98604.13
2022-12-11T13:12:47.214Z,98615.09
2022-12-11T13:15:51.911Z,98642.91
2022-12-11T13:18:54.681Z,98636.25
2022-12-11T13:22:12.638Z,98645.53
2022-12-11T13:25:26.197Z,98640.56
2022-12-11T13:28:30.126Z,98643.09
2022-12-11T13:31:37.769Z,98640.06
2022-12-11T13:34:42.344Z,98630.50
2022-12-11T13:37:45.899Z,98647.56
2022-12-11T13:40:55.074Z,98642.53
2022-12-11T13:43:58.082Z,98665.47
2022-12-11T13:47:02.347Z,98655.81
2022-12-11T13:50:31.394Z,98664.38
2022-12-11T13:53:33.783Z,98654.44
2022-12-11T13:56:36.098Z,98658.88
2022-12-11T13:59:42.521Z,98671.47
2022-12-11T14:02:44.828Z,98675.13
2022-12-11T14:05:47.348Z,98668.53
2022-12-11T14:08:52.313Z,98691.59
2022-12-11T14:11:57.472Z,98687.66
2022-12-11T14:15:02.054Z,98691.53
2022-12-11T14:18:06.920Z,98696.75
2022-12-11T14:21:23.535Z,98696.25
2022-12-11T14:24:26.163Z,98709.81
2022-12-11T14:27:28.855Z,98714.34
2022-12-11T14:30:33.431Z,98719.19
2022-12-11T14:33:39.135Z,98720.50
2022-12-11T14:36:42.435Z,98739.13
2022-12-11T14:39:49.106Z,98731.19
2022-12-11T14:43:00.117Z,98730.56
2022-12-11T14:46:07.793Z,98743.06
2022-12-11T14:49:40.479Z,98750.34
2022-12-11T14:52:45.677Z,98731.13
2022-12-11T14:55:49.446Z,98747.31
2022-12-11T14:59:06.683Z,98743.50
2022-12-11T15:02:33.936Z,98757.75
2022-12-11T15:05:48.606Z,98744.13
2022-12-11T15:08:53.040Z,98752.91
2022-12-11T15:12:11.847Z,98752.53
2022-12-11T15:15:17.297Z,98769.09
2022-12-11T15:18:33.400Z,98759.06
2022-12-11T15:21:36.233Z,98768.03
2022-12-11T15:24:41.243Z,98767.97
2022-12-11T15:27:43.645Z,98772.06
2022-12-11T15:30:58.080Z,98792.03
2022-12-11T15:34:00.512Z,98785.50
2022-12-11T15:37:03.058Z,98775.31
2022-12-11T15:40:05.870Z,98783.41
2022-12-11T15:43:08.935Z,98786.13
2022-12-11T15:46:11.260Z,98783.66
2022-12-11T15:49:14.584Z,98786.19
2022-12-11T15:52:16.869Z,98770.25
2022-12-11T15:55:19.915Z,98786.38
2022-12-11T15:58:23.465Z,98782.88
2022-12-11T16:01:25.796Z,98773.78
2022-12-11T16:04:29.609Z,98784.34
2022-12-11T16:07:32.861Z,98794.34
2022-12-11T16:10:35.280Z,98784.06
2022-12-11T16:13:38.821Z,98794.03
2022-12-11T16:16:41.066Z,98803.81
2022-12-11T16:19:44.875Z,98811.88
2022-12-11T16:22:47.119Z,98794.94
2022-12-11T16:25:50.653Z,98795.38
2022-12-11T16:28:52.964Z,98802.28
2022-12-11T16:31:55.442Z,98800.03
2022-12-11T16:35:00.805Z,98793.59
2022-12-11T16:38:03.319Z,98810.44
2022-12-11T16:41:05.970Z,98822.22
2022-12-11T16:44:08.418Z,98827.44
2022-12-11T16:47:10.700Z,98824.06
2022-12-11T16:50:15.322Z,98820.13
2022-12-11T16:53:17.704Z,98816.25
2022-12-11T16:56:22.347Z,98818.75
2022-12-11T16:59:24.666Z,98805.88
2022-12-11T17:02:26.967Z,98827.13
2022-12-11T17:05:29.245Z,98830.97
2022-12-11T17:08:31.738Z,98808.84
2022-12-11T17:11:34.035Z,98824.06
2022-12-11T17:14:36.564Z,98811.13
2022-12-11T17:17:38.950Z,98804.09
2022-12-11T17:20:42.390Z,98814.78
2022-12-11T17:23:46.003Z,98804.63
2022-12-11T17:26:48.329Z,98803.75
2022-12-11T17:29:50.915Z,98812.53
2022-12-11T17:32:53.191Z,98813.06
2022-12-11T17:35:55.539Z,98807.38
2022-12-11T17:38:57.955Z,98813.00
2022-12-11T17:42:00.665Z,98821.22
2022-12-11T17:45:02.974Z,98818.72
2022-12-11T17:48:05.441Z,98812.34
2022-12-11T17:51:14.588Z,98820.59
2022-12-11T17:54:16.864Z,98814.91
2022-12-11T17:57:19.131Z,98819.06
2022-12-11T18:00:21.514Z,98826.69
2022-12-11T18:03:28.090Z,98812.53
2022-12-11T18:06:30.990Z,98819.63
2022-12-11T18:09:33.352Z,98829.44
2022-12-11T18:12:35.769Z,98830.63
2022-12-11T18:15:38.353Z,98838.16
2022-12-11T18:18:40.909Z,98853.50
2022-12-11T18:21:45.810Z,98836.97
2022-12-11T18:24:48.181Z,98843.47
2022-12-11T18:27:50.765Z,98842.50
2022-12-11T18:30:53.216Z,98850.38
2022-12-11T18:33:57.319Z,98846.06
2022-12-11T18:36:59.665Z,98860.06
2022-12-11T18:40:02.264Z,98844.16
2022-12-11T18:43:04.572Z,98845.97
2022-12-11T18:46:12.753Z,98869.44
2022-12-11T18:49:15.678Z,98867.16
2022-12-11T18:52:18.263Z,98876.63
2022-12-11T18:55:21.002Z,98856.78
2022-12-11T18:58:23.326Z,98861.66
2022-12-11T19:01:28.862Z,98866.03
2022-12-11T19:04:31.252Z,98868.47
2022-12-11T19:07:33.761Z,98871.00
2022-12-11T19:10:41.740Z,98885.41
2022-12-11T19:13:44.531Z,98892.41
2022-12-11T19:16:46.818Z,98881.44
2022-12-11T19:19:49.072Z,98891.66
2022-12-11T19:22:51.366Z,98877.69
2022-12-11T19:25:53.816Z,98885.97
2022-12-11T19:29:00.062Z,98867.34
2022-12-11T19:32:03.065Z,98894.53
2022-12-11T19:35:05.634Z,98879.66
2022-12-11T19:38:08.546Z,98900.56
2022-12-11T19:41:15.530Z,98879.50
2022-12-11T19:44:17.828Z,98890.03
2022-12-11T19:47:20.166Z,98888.59
2022-12-11T19:50:22.451Z,98907.41
2022-12-11T19:53:24.927Z,98899.94
2022-12-11T19:56:28.475Z,98892.09
2022-12-11T19:59:30.837Z,98887.59
2022-12-11T20:02:33.072Z,98900.94
2022-12-11T20:05:35.665Z,98888.19
2022-12-11T20:08:46.013Z,98890.38
2022-12-11T20:11:48.779Z,98910.00
2022-12-11T20:14:51.058Z,98892.94
2022-12-11T20:17:54.416Z,98929.88
2022-12-11T20:21:00.543Z,98929.50
2022-12-11T20:24:02.938Z,98933.78
2022-12-11T20:27:05.649Z,98930.16
2022-12-11T20:30:08.400Z,98929.16
2022-12-11T20:33:10.669Z,98926.91
2022-12-11T20:36:15.953Z,98923.25
2022-12-11T20:39:18.278Z,98927.78
2022-12-11T20:42:20.550Z,98916.63
2022-12-11T20:45:22.821Z,98925.38
2022-12-11T20:48:26.412Z,98921.09
2022-12-11T20:51:29.208Z,98922.13
2022-12-11T20:54:31.633Z,98917.03
2022-12-11T20:57:34.000Z,98933.38
2022-12-11T21:00:40.180Z,98937.63
2022-12-11T21:03:42.603Z,98930.50
2022-12-11T21:06:45.027Z,98935.41
2022-12-11T21:09:47.328Z,98957.06
2022-12-11T21:12:49.703Z,98958.72
2022-12-11T21:15:56.305Z,98957.13
2022-12-11T21:18:59.018Z,98966.41
2022-12-11T21:22:01.251Z,98968.06
2022-12-11T21:25:04.594Z,98973.09
2022-12-11T21:28:07.344Z,98985.84
2022-12-11T21:31:13.435Z,98982.44
2022-12-11T21:34:19.390Z,98982.44
2022-12-11T21:37:24.374Z,98969.47
2022-12-11T21:40:26.915Z,98983.41
2022-12-11T21:43:29.159Z,98981.19
2022-12-11T21:46:31.992Z,98986.88
2022-12-11T21:49:35.189Z,98985.06
2022-12-11T21:52:38.427Z,98987.66
2022-12-11T21:55:42.344Z,98992.13
2022-12-11T21:58:45.544Z,98990.09
2022-12-11T22:01:47.820Z,98994.53
2022-12-11T22:04:50.560Z,98999.41
2022-12-11T22:07:55.645Z,98999.81
2022-12-11T22:10:57.988Z,99002.66
2022-12-11T22:14:00.709Z,99002.44
2022-12-11T22:17:03.126Z,99008.31
2022-12-11T22:20:06.903Z,98997.81
2022-12-11T22:23:09.209Z,99005.88
2022-12-11T22:26:17.446Z,98998.78
2022-12-11T22:29:19.709Z,99004.06
2022-12-11T22:32:22.071Z,99004.66
2022-12-11T22:35:27.294Z,98999.41
2022-12-11T22:38:31.034Z,98999.41
2022-12-11T22:41:33.418Z,98975.34
2022-12-11T22:44:36.191Z,98997.78
2022-12-11T22:47:38.796Z,99012.13
2022-12-11T22:50:42.738Z,99012.53
2022-12-11T22:53:45.113Z,99022.84
2022-12-11T22:56:49.182Z,99010.53
2022-12-11T22:59:51.538Z,99023.03
2022-12-11T23:02:53.946Z,99038.59
2022-12-11T23:05:58.754Z,99020.38
2022-12-11T23:09:04.014Z,99028.91
2022-12-11T23:12:06.903Z,99028.09
2022-12-11T23:15:10.540Z,99031.53
2022-12-11T23:18:13.042Z,99035.00
2022-12-11T23:21:15.480Z,99019.22
2022-12-11T23:24:17.833Z,99022.84
2022-12-11T23:27:20.072Z,99036.78
2022-12-11T23:30:22.492Z,99035.75
2022-12-11T23:33:25.313Z,99039.63
2022-12-11T23:36:30.550Z,99029.34
2022-12-11T23:39:33.891Z,99022.03
2022-12-11T23:42:36.137Z,99029.34
2022-12-11T23:45:38.467Z,99028.88
2022-12-11T23:48:41.861Z,99025.38
2022-12-11T23:51:44.095Z,99032.13
2022-12-11T23:54:46.535Z,99027.00
2022-12-11T23:57:48.822Z,99029.47
